sensor_id;sensor_type;location;lat;lon;timestamp;temperature;humidity
4306;DHT22;2166;49.926;8.608;2023-08-08T00:00:47;13.20;76.30
4306;DHT22;2166;49.926;8.608;2023-08-08T00:03:16;13.20;76.30
4306;DHT22;2166;49.926;8.608;2023-08-08T00:05:44;13.20;76.30
4306;DHT22;2166;49.926;8.608;2023-08-08T00:08:14;13.20;76.30
4306;DHT22;2166;49.926;8.608;2023-08-08T00:10:42;13.20;76.30
4306;DHT22;2166;49.926;8.608;2023-08-08T00:13:13;13.20;76.30
4306;DHT22;2166;49.926;8.608;2023-08-08T00:15:41;13.20;76.30
4306;DHT22;2166;49.926;8.608;2023-08-08T00:18:10;13.10;76.30
4306;DHT22;2166;49.926;8.608;2023-08-08T00:20:38;13.20;76.30
4306;DHT22;2166;49.926;8.608;2023-08-08T00:23:06;13.20;76.30
4306;DHT22;2166;49.926;8.608;2023-08-08T00:25:35;13.30;76.40
4306;DHT22;2166;49.926;8.608;2023-08-08T00:28:05;13.30;76.40
4306;DHT22;2166;49.926;8.608;2023-08-08T00:30:35;13.40;76.30
4306;DHT22;2166;49.926;8.608;2023-08-08T00:33:04;13.40;76.30
4306;DHT22;2166;49.926;8.608;2023-08-08T00:35:32;13.40;76.30
4306;DHT22;2166;49.926;8.608;2023-08-08T00:38:01;13.40;76.30
4306;DHT22;2166;49.926;8.608;2023-08-08T00:40:29;13.40;76.30
4306;DHT22;2166;49.926;8.608;2023-08-08T00:42:58;13.30;76.30
4306;DHT22;2166;49.926;8.608;2023-08-08T00:45:27;13.20;76.40
4306;DHT22;2166;49.926;8.608;2023-08-08T00:47:57;13.20;76.30
4306;DHT22;2166;49.926;8.608;2023-08-08T00:50:25;13.10;76.40
4306;DHT22;2166;49.926;8.608;2023-08-08T00:52:56;13.00;76.30
4306;DHT22;2166;49.926;8.608;2023-08-08T00:55:25;13.00;76.30
4306;DHT22;2166;49.926;8.608;2023-08-08T00:57:53;13.00;76.30
4306;DHT22;2166;49.926;8.608;2023-08-08T01:00:22;13.00;76.30
4306;DHT22;2166;49.926;8.608;2023-08-08T01:02:50;13.00;76.40
4306;DHT22;2166;49.926;8.608;2023-08-08T01:05:23;13.10;76.30
4306;DHT22;2166;49.926;8.608;2023-08-08T01:07:54;13.10;76.30
4306;DHT22;2166;49.926;8.608;2023-08-08T01:10:28;13.10;76.30
4306;DHT22;2166;49.926;8.608;2023-08-08T01:13:00;13.00;76.30
4306;DHT22;2166;49.926;8.608;2023-08-08T01:15:30;13.00;76.30
4306;DHT22;2166;49.926;8.608;2023-08-08T01:18:04;13.00;76.20
4306;DHT22;2166;49.926;8.608;2023-08-08T01:20:35;13.00;76.20
4306;DHT22;2166;49.926;8.608;2023-08-08T01:23:11;12.90;76.20
4306;DHT22;2166;49.926;8.608;2023-08-08T01:25:42;12.90;76.20
4306;DHT22;2166;49.926;8.608;2023-08-08T01:28:13;12.90;76.10
4306;DHT22;2166;49.926;8.608;2023-08-08T01:30:41;12.90;76.20
4306;DHT22;2166;49.926;8.608;2023-08-08T01:33:11;12.90;76.10
4306;DHT22;2166;49.926;8.608;2023-08-08T01:35:42;13.00;76.20
4306;DHT22;2166;49.926;8.608;2023-08-08T01:38:19;13.10;76.30
4306;DHT22;2166;49.926;8.608;2023-08-08T01:40:50;13.20;76.20
4306;DHT22;2166;49.926;8.608;2023-08-08T01:43:20;13.20;76.20
4306;DHT22;2166;49.926;8.608;2023-08-08T01:45:49;13.20;76.20
4306;DHT22;2166;49.926;8.608;2023-08-08T01:48:20;13.30;76.20
4306;DHT22;2166;49.926;8.608;2023-08-08T01:50:49;13.30;76.20
4306;DHT22;2166;49.926;8.608;2023-08-08T01:53:18;13.40;76.20
4306;DHT22;2166;49.926;8.608;2023-08-08T01:55:47;13.40;76.20
4306;DHT22;2166;49.926;8.608;2023-08-08T01:58:17;13.40;76.20
4306;DHT22;2166;49.926;8.608;2023-08-08T02:00:45;13.40;76.20
4306;DHT22;2166;49.926;8.608;2023-08-08T02:03:14;13.50;76.20
4306;DHT22;2166;49.926;8.608;2023-08-08T02:05:43;13.40;76.10
4306;DHT22;2166;49.926;8.608;2023-08-08T02:08:11;13.50;76.20
4306;DHT22;2166;49.926;8.608;2023-08-08T02:10:39;13.50;76.10
4306;DHT22;2166;49.926;8.608;2023-08-08T02:13:08;13.50;76.20
4306;DHT22;2166;49.926;8.608;2023-08-08T02:15:38;13.50;76.20
4306;DHT22;2166;49.926;8.608;2023-08-08T02:18:06;13.50;76.20
4306;DHT22;2166;49.926;8.608;2023-08-08T02:20:37;13.50;76.20
4306;DHT22;2166;49.926;8.608;2023-08-08T02:23:06;13.40;76.10
4306;DHT22;2166;49.926;8.608;2023-08-08T02:25:35;13.40;76.20
4306;DHT22;2166;49.926;8.608;2023-08-08T02:28:05;13.40;76.20
4306;DHT22;2166;49.926;8.608;2023-08-08T02:30:34;13.40;76.20
4306;DHT22;2166;49.926;8.608;2023-08-08T02:33:04;13.30;76.30
4306;DHT22;2166;49.926;8.608;2023-08-08T02:35:33;13.30;76.20
4306;DHT22;2166;49.926;8.608;2023-08-08T02:38:06;13.20;76.30
4306;DHT22;2166;49.926;8.608;2023-08-08T02:40:34;13.10;76.20
4306;DHT22;2166;49.926;8.608;2023-08-08T02:43:03;13.10;76.20
4306;DHT22;2166;49.926;8.608;2023-08-08T02:45:32;13.00;76.20
4306;DHT22;2166;49.926;8.608;2023-08-08T02:48:01;12.90;76.20
4306;DHT22;2166;49.926;8.608;2023-08-08T02:50:30;12.80;76.20
4306;DHT22;2166;49.926;8.608;2023-08-08T02:52:58;12.60;76.20
4306;DHT22;2166;49.926;8.608;2023-08-08T02:55:33;12.50;76.10
4306;DHT22;2166;49.926;8.608;2023-08-08T02:58:02;12.40;76.10
4306;DHT22;2166;49.926;8.608;2023-08-08T03:00:33;12.30;76.00
4306;DHT22;2166;49.926;8.608;2023-08-08T03:03:02;12.20;76.10
4306;DHT22;2166;49.926;8.608;2023-08-08T03:05:34;12.10;76.10
4306;DHT22;2166;49.926;8.608;2023-08-08T03:08:03;12.10;76.00
4306;DHT22;2166;49.926;8.608;2023-08-08T03:10:32;12.00;76.00
4306;DHT22;2166;49.926;8.608;2023-08-08T03:13:01;11.90;76.00
4306;DHT22;2166;49.926;8.608;2023-08-08T03:15:29;11.90;76.00
4306;DHT22;2166;49.926;8.608;2023-08-08T03:17:58;11.80;76.00
4306;DHT22;2166;49.926;8.608;2023-08-08T03:20:27;11.80;76.00
4306;DHT22;2166;49.926;8.608;2023-08-08T03:22:58;11.70;76.00
4306;DHT22;2166;49.926;8.608;2023-08-08T03:25:27;11.70;75.90
4306;DHT22;2166;49.926;8.608;2023-08-08T03:27:56;11.60;76.00
4306;DHT22;2166;49.926;8.608;2023-08-08T03:30:26;11.50;76.10
4306;DHT22;2166;49.926;8.608;2023-08-08T03:32:55;11.50;76.10
4306;DHT22;2166;49.926;8.608;2023-08-08T03:35:24;11.40;76.10
4306;DHT22;2166;49.926;8.608;2023-08-08T03:37:52;11.40;76.10
4306;DHT22;2166;49.926;8.608;2023-08-08T03:40:22;11.30;76.10
4306;DHT22;2166;49.926;8.608;2023-08-08T03:42:51;11.30;76.10
4306;DHT22;2166;49.926;8.608;2023-08-08T03:45:19;11.30;76.10
4306;DHT22;2166;49.926;8.608;2023-08-08T03:47:47;11.30;76.00
4306;DHT22;2166;49.926;8.608;2023-08-08T03:50:16;11.30;76.10
4306;DHT22;2166;49.926;8.608;2023-08-08T03:52:45;11.20;76.10
4306;DHT22;2166;49.926;8.608;2023-08-08T03:55:15;11.20;76.10
4306;DHT22;2166;49.926;8.608;2023-08-08T03:57:44;11.20;76.10
4306;DHT22;2166;49.926;8.608;2023-08-08T04:00:14;11.10;76.10
4306;DHT22;2166;49.926;8.608;2023-08-08T04:02:43;11.10;76.10
4306;DHT22;2166;49.926;8.608;2023-08-08T04:05:12;11.10;76.10
4306;DHT22;2166;49.926;8.608;2023-08-08T04:07:40;11.10;76.10
4306;DHT22;2166;49.926;8.608;2023-08-08T04:10:09;11.00;76.30
4306;DHT22;2166;49.926;8.608;2023-08-08T04:12:38;11.00;76.30
4306;DHT22;2166;49.926;8.608;2023-08-08T04:15:09;11.00;76.30
4306;DHT22;2166;49.926;8.608;2023-08-08T04:17:37;11.00;76.30
4306;DHT22;2166;49.926;8.608;2023-08-08T04:20:07;11.00;76.30
4306;DHT22;2166;49.926;8.608;2023-08-08T04:22:37;11.00;75.70
4306;DHT22;2166;49.926;8.608;2023-08-08T04:25:06;11.00;75.70
4306;DHT22;2166;49.926;8.608;2023-08-08T04:27:35;11.00;75.70
4306;DHT22;2166;49.926;8.608;2023-08-08T04:30:04;11.10;75.70
4306;DHT22;2166;49.926;8.608;2023-08-08T04:32:34;11.10;75.70
4306;DHT22;2166;49.926;8.608;2023-08-08T04:35:03;11.10;75.70
4306;DHT22;2166;49.926;8.608;2023-08-08T04:37:32;11.30;75.70
4306;DHT22;2166;49.926;8.608;2023-08-08T04:40:00;11.40;75.70
4306;DHT22;2166;49.926;8.608;2023-08-08T04:42:30;11.40;76.10
4306;DHT22;2166;49.926;8.608;2023-08-08T04:44:58;11.50;75.90
4306;DHT22;2166;49.926;8.608;2023-08-08T04:47:27;11.50;75.90
4306;DHT22;2166;49.926;8.608;2023-08-08T04:49:57;11.60;75.90
4306;DHT22;2166;49.926;8.608;2023-08-08T04:52:25;11.90;75.80
4306;DHT22;2166;49.926;8.608;2023-08-08T04:54:53;12.20;75.70
4306;DHT22;2166;49.926;8.608;2023-08-08T04:57:22;12.50;75.60
4306;DHT22;2166;49.926;8.608;2023-08-08T04:59:50;12.80;75.40
4306;DHT22;2166;49.926;8.608;2023-08-08T05:02:21;13.10;75.60
4306;DHT22;2166;49.926;8.608;2023-08-08T05:04:51;13.30;75.70
4306;DHT22;2166;49.926;8.608;2023-08-08T05:07:21;13.50;75.50
4306;DHT22;2166;49.926;8.608;2023-08-08T05:09:49;13.80;75.80
4306;DHT22;2166;49.926;8.608;2023-08-08T05:12:18;14.00;75.70
4306;DHT22;2166;49.926;8.608;2023-08-08T05:14:47;14.10;75.70
4306;DHT22;2166;49.926;8.608;2023-08-08T05:17:15;14.30;75.70
4306;DHT22;2166;49.926;8.608;2023-08-08T05:19:44;14.50;75.70
4306;DHT22;2166;49.926;8.608;2023-08-08T05:22:12;14.70;75.70
4306;DHT22;2166;49.926;8.608;2023-08-08T05:24:42;14.80;75.70
4306;DHT22;2166;49.926;8.608;2023-08-08T05:27:10;14.90;75.60
4306;DHT22;2166;49.926;8.608;2023-08-08T05:29:39;15.00;75.50
4306;DHT22;2166;49.926;8.608;2023-08-08T05:32:08;15.20;75.50
4306;DHT22;2166;49.926;8.608;2023-08-08T05:34:37;15.40;75.40
4306;DHT22;2166;49.926;8.608;2023-08-08T05:37:05;15.80;75.90
4306;DHT22;2166;49.926;8.608;2023-08-08T05:39:44;16.20;75.50
4306;DHT22;2166;49.926;8.608;2023-08-08T05:42:13;16.50;75.40
4306;DHT22;2166;49.926;8.608;2023-08-08T05:44:42;16.60;75.20
4306;DHT22;2166;49.926;8.608;2023-08-08T05:47:10;16.80;75.30
4306;DHT22;2166;49.926;8.608;2023-08-08T05:49:39;16.90;75.40
4306;DHT22;2166;49.926;8.608;2023-08-08T05:52:10;17.30;75.10
4306;DHT22;2166;49.926;8.608;2023-08-08T05:54:38;17.40;75.10
4306;DHT22;2166;49.926;8.608;2023-08-08T05:57:08;17.30;75.10
4306;DHT22;2166;49.926;8.608;2023-08-08T05:59:37;17.70;75.20
4306;DHT22;2166;49.926;8.608;2023-08-08T06:02:07;18.30;74.70
4306;DHT22;2166;49.926;8.608;2023-08-08T06:04:35;18.70;74.00
4306;DHT22;2166;49.926;8.608;2023-08-08T06:07:05;18.50;74.10
4306;DHT22;2166;49.926;8.608;2023-08-08T06:09:36;18.80;74.50
4306;DHT22;2166;49.926;8.608;2023-08-08T06:12:06;19.00;73.30
4306;DHT22;2166;49.926;8.608;2023-08-08T06:14:35;19.30;73.20
4306;DHT22;2166;49.926;8.608;2023-08-08T06:17:04;19.30;73.00
4306;DHT22;2166;49.926;8.608;2023-08-08T06:19:33;19.40;72.80
4306;DHT22;2166;49.926;8.608;2023-08-08T06:22:03;20.10;72.30
4306;DHT22;2166;49.926;8.608;2023-08-08T06:24:31;21.00;71.00
4306;DHT22;2166;49.926;8.608;2023-08-08T06:26:59;20.90;71.10
4306;DHT22;2166;49.926;8.608;2023-08-08T06:29:30;21.00;71.00
4306;DHT22;2166;49.926;8.608;2023-08-08T06:32:00;21.40;71.20
4306;DHT22;2166;49.926;8.608;2023-08-08T06:34:30;21.90;69.10
4306;DHT22;2166;49.926;8.608;2023-08-08T06:36:58;21.90;69.40
4306;DHT22;2166;49.926;8.608;2023-08-08T06:39:26;21.80;68.60
4306;DHT22;2166;49.926;8.608;2023-08-08T06:41:55;21.50;69.30
4306;DHT22;2166;49.926;8.608;2023-08-08T06:44:41;20.90;70.60
4306;DHT22;2166;49.926;8.608;2023-08-08T06:47:11;20.80;71.10
4306;DHT22;2166;49.926;8.608;2023-08-08T06:49:40;20.70;71.70
4306;DHT22;2166;49.926;8.608;2023-08-08T06:52:08;20.70;71.90
4306;DHT22;2166;49.926;8.608;2023-08-08T06:54:36;20.50;71.40
4306;DHT22;2166;49.926;8.608;2023-08-08T06:57:05;20.10;72.30
4306;DHT22;2166;49.926;8.608;2023-08-08T06:59:34;20.40;72.20
4306;DHT22;2166;49.926;8.608;2023-08-08T07:02:02;20.40;72.30
4306;DHT22;2166;49.926;8.608;2023-08-08T07:04:32;20.60;72.10
4306;DHT22;2166;49.926;8.608;2023-08-08T07:07:02;20.80;71.40
4306;DHT22;2166;49.926;8.608;2023-08-08T07:09:31;20.90;71.20
4306;DHT22;2166;49.926;8.608;2023-08-08T07:12:02;21.10;70.70
4306;DHT22;2166;49.926;8.608;2023-08-08T07:14:30;21.50;69.90
4306;DHT22;2166;49.926;8.608;2023-08-08T07:16:59;21.70;68.50
4306;DHT22;2166;49.926;8.608;2023-08-08T07:19:29;22.00;68.50
4306;DHT22;2166;49.926;8.608;2023-08-08T07:21:59;22.30;67.20
4306;DHT22;2166;49.926;8.608;2023-08-08T07:24:28;22.80;66.10
4306;DHT22;2166;49.926;8.608;2023-08-08T07:26:58;23.10;63.60
4306;DHT22;2166;49.926;8.608;2023-08-08T07:29:31;23.20;62.90
4306;DHT22;2166;49.926;8.608;2023-08-08T07:32:03;23.60;61.90
4306;DHT22;2166;49.926;8.608;2023-08-08T07:34:32;24.20;61.00
4306;DHT22;2166;49.926;8.608;2023-08-08T07:37:02;24.60;60.20
4306;DHT22;2166;49.926;8.608;2023-08-08T07:39:31;24.80;59.10
4306;DHT22;2166;49.926;8.608;2023-08-08T07:42:01;24.80;59.10
4306;DHT22;2166;49.926;8.608;2023-08-08T07:44:29;24.50;59.40
4306;DHT22;2166;49.926;8.608;2023-08-08T07:47:00;24.60;59.30
4306;DHT22;2166;49.926;8.608;2023-08-08T07:49:29;25.10;58.40
4306;DHT22;2166;49.926;8.608;2023-08-08T07:51:57;24.90;57.30
4306;DHT22;2166;49.926;8.608;2023-08-08T07:54:27;24.60;58.10
4306;DHT22;2166;49.926;8.608;2023-08-08T07:56:56;24.90;57.90
4306;DHT22;2166;49.926;8.608;2023-08-08T07:59:25;24.30;58.60
4306;DHT22;2166;49.926;8.608;2023-08-08T08:01:53;24.00;59.50
4306;DHT22;2166;49.926;8.608;2023-08-08T08:04:22;24.10;59.80
4306;DHT22;2166;49.926;8.608;2023-08-08T08:06:50;24.40;58.60
4306;DHT22;2166;49.926;8.608;2023-08-08T08:09:22;24.40;58.60
4306;DHT22;2166;49.926;8.608;2023-08-08T08:11:52;24.10;58.80
4306;DHT22;2166;49.926;8.608;2023-08-08T08:14:21;23.90;59.30
4306;DHT22;2166;49.926;8.608;2023-08-08T08:16:52;24.10;58.30
4306;DHT22;2166;49.926;8.608;2023-08-08T08:19:21;24.00;58.30
4306;DHT22;2166;49.926;8.608;2023-08-08T08:21:50;24.30;58.70
4306;DHT22;2166;49.926;8.608;2023-08-08T08:24:18;25.00;56.70
4306;DHT22;2166;49.926;8.608;2023-08-08T08:26:47;24.70;55.60
4306;DHT22;2166;49.926;8.608;2023-08-08T08:29:17;24.70;55.80
4306;DHT22;2166;49.926;8.608;2023-08-08T08:31:48;25.00;55.90
4306;DHT22;2166;49.926;8.608;2023-08-08T08:34:17;24.60;57.00
4306;DHT22;2166;49.926;8.608;2023-08-08T08:36:45;24.60;58.10
4306;DHT22;2166;49.926;8.608;2023-08-08T08:39:13;24.60;57.70
4306;DHT22;2166;49.926;8.608;2023-08-08T08:41:42;24.60;57.40
4306;DHT22;2166;49.926;8.608;2023-08-08T08:44:14;24.60;57.10
4306;DHT22;2166;49.926;8.608;2023-08-08T08:46:47;25.10;57.30
4306;DHT22;2166;49.926;8.608;2023-08-08T08:49:18;25.50;54.10
4306;DHT22;2166;49.926;8.608;2023-08-08T08:51:49;25.40;51.50
4306;DHT22;2166;49.926;8.608;2023-08-08T08:54:20;24.30;52.10
4306;DHT22;2166;49.926;8.608;2023-08-08T08:56:49;23.60;54.50
4306;DHT22;2166;49.926;8.608;2023-08-08T08:59:18;23.40;54.70
4306;DHT22;2166;49.926;8.608;2023-08-08T09:01:47;23.30;55.70
4306;DHT22;2166;49.926;8.608;2023-08-08T09:04:19;23.30;55.60
4306;DHT22;2166;49.926;8.608;2023-08-08T09:06:48;22.70;55.30
4306;DHT22;2166;49.926;8.608;2023-08-08T09:09:17;22.50;57.50
4306;DHT22;2166;49.926;8.608;2023-08-08T09:11:51;22.80;55.90
4306;DHT22;2166;49.926;8.608;2023-08-08T09:14:22;22.20;56.90
4306;DHT22;2166;49.926;8.608;2023-08-08T09:16:53;22.10;58.00
4306;DHT22;2166;49.926;8.608;2023-08-08T09:19:23;22.20;58.40
4306;DHT22;2166;49.926;8.608;2023-08-08T09:21:52;22.80;57.70
4306;DHT22;2166;49.926;8.608;2023-08-08T09:24:21;23.30;56.30
4306;DHT22;2166;49.926;8.608;2023-08-08T09:26:49;23.60;54.80
4306;DHT22;2166;49.926;8.608;2023-08-08T09:29:17;23.60;55.60
4306;DHT22;2166;49.926;8.608;2023-08-08T09:31:46;23.80;55.10
4306;DHT22;2166;49.926;8.608;2023-08-08T09:34:16;24.00;54.50
4306;DHT22;2166;49.926;8.608;2023-08-08T09:36:44;24.40;54.50
4306;DHT22;2166;49.926;8.608;2023-08-08T09:39:13;24.70;53.90
4306;DHT22;2166;49.926;8.608;2023-08-08T09:41:41;24.80;53.50
4306;DHT22;2166;49.926;8.608;2023-08-08T09:44:10;24.90;53.30
4306;DHT22;2166;49.926;8.608;2023-08-08T09:46:39;25.40;53.50
4306;DHT22;2166;49.926;8.608;2023-08-08T09:49:10;26.00;50.60
4306;DHT22;2166;49.926;8.608;2023-08-08T09:51:41;26.80;50.50
4306;DHT22;2166;49.926;8.608;2023-08-08T09:54:10;27.70;49.20
4306;DHT22;2166;49.926;8.608;2023-08-08T09:56:39;26.80;49.00
4306;DHT22;2166;49.926;8.608;2023-08-08T09:59:09;26.30;50.60
4306;DHT22;2166;49.926;8.608;2023-08-08T10:01:39;26.30;49.30
4306;DHT22;2166;49.926;8.608;2023-08-08T10:04:09;25.80;51.00
4306;DHT22;2166;49.926;8.608;2023-08-08T10:06:42;26.00;52.00
4306;DHT22;2166;49.926;8.608;2023-08-08T10:09:14;26.20;50.60
4306;DHT22;2166;49.926;8.608;2023-08-08T10:11:44;27.30;50.00
4306;DHT22;2166;49.926;8.608;2023-08-08T10:14:13;27.80;49.40
4306;DHT22;2166;49.926;8.608;2023-08-08T10:16:43;28.00;47.50
4306;DHT22;2166;49.926;8.608;2023-08-08T10:19:13;27.30;48.50
4306;DHT22;2166;49.926;8.608;2023-08-08T10:21:43;26.90;49.20
4306;DHT22;2166;49.926;8.608;2023-08-08T10:24:12;25.60;51.40
4306;DHT22;2166;49.926;8.608;2023-08-08T10:26:54;25.00;52.60
4306;DHT22;2166;49.926;8.608;2023-08-08T10:29:29;25.00;52.50
4306;DHT22;2166;49.926;8.608;2023-08-08T10:31:59;24.90;52.30
4306;DHT22;2166;49.926;8.608;2023-08-08T10:34:37;24.70;53.60
4306;DHT22;2166;49.926;8.608;2023-08-08T10:37:09;25.10;52.20
4306;DHT22;2166;49.926;8.608;2023-08-08T10:39:51;25.10;53.50
4306;DHT22;2166;49.926;8.608;2023-08-08T10:42:20;25.30;52.30
4306;DHT22;2166;49.926;8.608;2023-08-08T10:44:51;25.00;53.50
4306;DHT22;2166;49.926;8.608;2023-08-08T10:47:22;25.10;52.50
4306;DHT22;2166;49.926;8.608;2023-08-08T10:49:59;25.00;53.40
4306;DHT22;2166;49.926;8.608;2023-08-08T10:52:29;24.60;54.00
4306;DHT22;2166;49.926;8.608;2023-08-08T10:54:57;24.90;54.60
4306;DHT22;2166;49.926;8.608;2023-08-08T10:57:27;25.70;53.10
4306;DHT22;2166;49.926;8.608;2023-08-08T11:00:16;25.60;52.70
4306;DHT22;2166;49.926;8.608;2023-08-08T11:02:45;25.40;52.70
4306;DHT22;2166;49.926;8.608;2023-08-08T11:05:14;25.20;53.00
4306;DHT22;2166;49.926;8.608;2023-08-08T11:07:44;25.40;53.70
4306;DHT22;2166;49.926;8.608;2023-08-08T11:10:13;26.00;51.40
4306;DHT22;2166;49.926;8.608;2023-08-08T11:12:42;26.30;50.50
4306;DHT22;2166;49.926;8.608;2023-08-08T11:15:20;26.00;50.60
4306;DHT22;2166;49.926;8.608;2023-08-08T11:17:48;26.00;52.10
4306;DHT22;2166;49.926;8.608;2023-08-08T11:20:16;26.00;50.70
4306;DHT22;2166;49.926;8.608;2023-08-08T11:22:51;25.80;51.10
4306;DHT22;2166;49.926;8.608;2023-08-08T11:25:20;25.80;51.40
4306;DHT22;2166;49.926;8.608;2023-08-08T11:27:50;25.70;51.60
4306;DHT22;2166;49.926;8.608;2023-08-08T11:33:07;26.90;48.70
4306;DHT22;2166;49.926;8.608;2023-08-08T11:35:43;27.30;48.50
4306;DHT22;2166;49.926;8.608;2023-08-08T11:38:14;28.10;47.90
4306;DHT22;2166;49.926;8.608;2023-08-08T11:40:43;28.50;46.40
4306;DHT22;2166;49.926;8.608;2023-08-08T11:43:12;28.40;47.10
4306;DHT22;2166;49.926;8.608;2023-08-08T11:45:42;28.30;46.80
4306;DHT22;2166;49.926;8.608;2023-08-08T11:48:11;28.30;45.40
4306;DHT22;2166;49.926;8.608;2023-08-08T11:50:40;28.50;46.10
4306;DHT22;2166;49.926;8.608;2023-08-08T11:53:10;28.50;44.60
4306;DHT22;2166;49.926;8.608;2023-08-08T11:55:41;27.90;45.40
4306;DHT22;2166;49.926;8.608;2023-08-08T11:58:13;28.10;45.40
4306;DHT22;2166;49.926;8.608;2023-08-08T12:00:43;29.00;43.90
4306;DHT22;2166;49.926;8.608;2023-08-08T12:03:12;29.30;43.60
4306;DHT22;2166;49.926;8.608;2023-08-08T12:05:45;29.80;43.70
4306;DHT22;2166;49.926;8.608;2023-08-08T12:08:17;29.60;43.10
4306;DHT22;2166;49.926;8.608;2023-08-08T12:10:49;29.60;43.10
4306;DHT22;2166;49.926;8.608;2023-08-08T12:13:20;29.40;44.10
4306;DHT22;2166;49.926;8.608;2023-08-08T12:15:49;29.80;44.30
4306;DHT22;2166;49.926;8.608;2023-08-08T12:18:19;30.20;43.10
4306;DHT22;2166;49.926;8.608;2023-08-08T12:20:48;30.50;42.30
4306;DHT22;2166;49.926;8.608;2023-08-08T12:23:16;30.60;42.00
4306;DHT22;2166;49.926;8.608;2023-08-08T12:25:46;31.00;43.00
4306;DHT22;2166;49.926;8.608;2023-08-08T12:28:16;30.70;41.20
4306;DHT22;2166;49.926;8.608;2023-08-08T12:30:45;29.50;43.10
4306;DHT22;2166;49.926;8.608;2023-08-08T12:33:14;28.30;45.60
4306;DHT22;2166;49.926;8.608;2023-08-08T12:35:43;27.70;46.50
4306;DHT22;2166;49.926;8.608;2023-08-08T12:38:12;27.60;46.10
4306;DHT22;2166;49.926;8.608;2023-08-08T12:40:41;27.70;46.80
4306;DHT22;2166;49.926;8.608;2023-08-08T12:43:10;28.00;46.70
4306;DHT22;2166;49.926;8.608;2023-08-08T12:45:42;28.10;46.40
4306;DHT22;2166;49.926;8.608;2023-08-08T12:48:10;28.20;46.90
4306;DHT22;2166;49.926;8.608;2023-08-08T12:50:40;28.00;46.30
4306;DHT22;2166;49.926;8.608;2023-08-08T12:53:08;28.20;42.20
4306;DHT22;2166;49.926;8.608;2023-08-08T12:55:37;28.20;42.50
4306;DHT22;2166;49.926;8.608;2023-08-08T12:58:06;28.00;43.00
4306;DHT22;2166;49.926;8.608;2023-08-08T13:00:34;27.70;44.00
4306;DHT22;2166;49.926;8.608;2023-08-08T13:03:05;27.10;44.50
4306;DHT22;2166;49.926;8.608;2023-08-08T13:05:34;26.50;44.60
4306;DHT22;2166;49.926;8.608;2023-08-08T13:08:03;26.20;45.40
4306;DHT22;2166;49.926;8.608;2023-08-08T13:10:31;26.50;46.20
4306;DHT22;2166;49.926;8.608;2023-08-08T13:13:03;26.30;46.10
4306;DHT22;2166;49.926;8.608;2023-08-08T13:15:32;26.10;46.70
4306;DHT22;2166;49.926;8.608;2023-08-08T13:18:00;25.60;46.70
4306;DHT22;2166;49.926;8.608;2023-08-08T13:20:31;25.10;47.40
4306;DHT22;2166;49.926;8.608;2023-08-08T13:23:00;25.00;48.70
4306;DHT22;2166;49.926;8.608;2023-08-08T13:25:29;25.60;48.00
4306;DHT22;2166;49.926;8.608;2023-08-08T13:28:01;26.50;47.20
4306;DHT22;2166;49.926;8.608;2023-08-08T13:30:30;26.70;45.30
4306;DHT22;2166;49.926;8.608;2023-08-08T13:33:00;26.70;45.80
4306;DHT22;2166;49.926;8.608;2023-08-08T13:35:30;26.70;46.80
4306;DHT22;2166;49.926;8.608;2023-08-08T13:37:59;26.80;47.10
4306;DHT22;2166;49.926;8.608;2023-08-08T13:40:27;27.00;46.20
4306;DHT22;2166;49.926;8.608;2023-08-08T13:42:56;26.90;45.30
4306;DHT22;2166;49.926;8.608;2023-08-08T13:45:24;26.90;45.40
4306;DHT22;2166;49.926;8.608;2023-08-08T13:47:53;26.50;45.70
4306;DHT22;2166;49.926;8.608;2023-08-08T13:50:22;26.00;46.90
4306;DHT22;2166;49.926;8.608;2023-08-08T13:52:52;25.90;47.20
4306;DHT22;2166;49.926;8.608;2023-08-08T13:55:21;26.30;46.80
4306;DHT22;2166;49.926;8.608;2023-08-08T13:57:49;26.90;46.60
4306;DHT22;2166;49.926;8.608;2023-08-08T14:00:18;27.20;46.00
4306;DHT22;2166;49.926;8.608;2023-08-08T14:02:47;26.90;45.10
4306;DHT22;2166;49.926;8.608;2023-08-08T14:05:17;26.80;45.40
4306;DHT22;2166;49.926;8.608;2023-08-08T14:07:46;26.20;46.90
4306;DHT22;2166;49.926;8.608;2023-08-08T14:10:16;25.90;48.00
4306;DHT22;2166;49.926;8.608;2023-08-08T14:12:44;25.30;48.50
4306;DHT22;2166;49.926;8.608;2023-08-08T14:15:14;25.00;49.40
4306;DHT22;2166;49.926;8.608;2023-08-08T14:17:43;25.30;49.30
4306;DHT22;2166;49.926;8.608;2023-08-08T14:20:13;25.50;49.70
4306;DHT22;2166;49.926;8.608;2023-08-08T14:22:44;25.60;49.10
4306;DHT22;2166;49.926;8.608;2023-08-08T14:25:13;25.30;50.30
4306;DHT22;2166;49.926;8.608;2023-08-08T14:27:43;25.00;49.60
4306;DHT22;2166;49.926;8.608;2023-08-08T14:30:11;24.50;50.90
4306;DHT22;2166;49.926;8.608;2023-08-08T14:32:41;23.90;51.50
4306;DHT22;2166;49.926;8.608;2023-08-08T14:35:09;23.40;52.30
4306;DHT22;2166;49.926;8.608;2023-08-08T14:37:39;23.10;53.60
4306;DHT22;2166;49.926;8.608;2023-08-08T14:40:09;22.80;55.20
4306;DHT22;2166;49.926;8.608;2023-08-08T14:42:38;22.60;55.10
4306;DHT22;2166;49.926;8.608;2023-08-08T14:45:09;22.50;55.90
4306;DHT22;2166;49.926;8.608;2023-08-08T14:47:37;22.50;56.40
4306;DHT22;2166;49.926;8.608;2023-08-08T14:50:09;22.50;56.80
4306;DHT22;2166;49.926;8.608;2023-08-08T14:52:37;22.30;56.60
4306;DHT22;2166;49.926;8.608;2023-08-08T14:55:07;22.20;57.90
4306;DHT22;2166;49.926;8.608;2023-08-08T14:57:36;22.20;58.20
4306;DHT22;2166;49.926;8.608;2023-08-08T15:00:06;22.30;58.90
4306;DHT22;2166;49.926;8.608;2023-08-08T15:02:37;22.30;59.00
4306;DHT22;2166;49.926;8.608;2023-08-08T15:05:07;22.20;59.50
4306;DHT22;2166;49.926;8.608;2023-08-08T15:07:35;22.00;60.20
4306;DHT22;2166;49.926;8.608;2023-08-08T15:10:04;21.60;60.60
4306;DHT22;2166;49.926;8.608;2023-08-08T15:12:33;21.40;62.00
4306;DHT22;2166;49.926;8.608;2023-08-08T15:15:02;21.30;62.20
4306;DHT22;2166;49.926;8.608;2023-08-08T15:17:31;21.20;62.60
4306;DHT22;2166;49.926;8.608;2023-08-08T15:20:06;21.30;62.70
4306;DHT22;2166;49.926;8.608;2023-08-08T15:22:42;21.50;62.20
4306;DHT22;2166;49.926;8.608;2023-08-08T15:25:12;21.60;61.80
4306;DHT22;2166;49.926;8.608;2023-08-08T15:27:40;21.80;61.50
4306;DHT22;2166;49.926;8.608;2023-08-08T15:30:09;21.70;61.80
4306;DHT22;2166;49.926;8.608;2023-08-08T15:32:38;21.50;62.50
4306;DHT22;2166;49.926;8.608;2023-08-08T15:35:09;21.50;63.20
4306;DHT22;2166;49.926;8.608;2023-08-08T15:37:38;21.40;62.80
4306;DHT22;2166;49.926;8.608;2023-08-08T15:40:07;21.40;62.70
4306;DHT22;2166;49.926;8.608;2023-08-08T15:42:35;21.10;62.90
4306;DHT22;2166;49.926;8.608;2023-08-08T15:45:04;20.80;64.30
4306;DHT22;2166;49.926;8.608;2023-08-08T15:47:33;20.80;65.50
4306;DHT22;2166;49.926;8.608;2023-08-08T15:50:01;20.80;65.60
4306;DHT22;2166;49.926;8.608;2023-08-08T15:52:31;20.80;66.50
4306;DHT22;2166;49.926;8.608;2023-08-08T15:54:59;20.90;67.10
4306;DHT22;2166;49.926;8.608;2023-08-08T15:57:28;21.00;66.90
4306;DHT22;2166;49.926;8.608;2023-08-08T15:59:56;21.10;67.10
4306;DHT22;2166;49.926;8.608;2023-08-08T16:02:25;21.20;66.90
4306;DHT22;2166;49.926;8.608;2023-08-08T16:04:54;21.40;66.50
4306;DHT22;2166;49.926;8.608;2023-08-08T16:07:26;21.50;66.00
4306;DHT22;2166;49.926;8.608;2023-08-08T16:09:56;21.60;65.70
4306;DHT22;2166;49.926;8.608;2023-08-08T16:12:25;21.80;65.30
4306;DHT22;2166;49.926;8.608;2023-08-08T16:14:54;21.90;64.90
4306;DHT22;2166;49.926;8.608;2023-08-08T16:17:22;22.00;63.90
4306;DHT22;2166;49.926;8.608;2023-08-08T16:19:51;22.20;63.50